Time;durP1;ratioP1;P1;durP2;ratioP2;P2;SDS_P1;SDS_P2;PMS_P1;PMS_P2;Temp;Humidity;BMP_temperature;BMP_pressure;BME280_temperature;BME280_humidity;BME280_pressure;Samples;Min_cycle;Max_cycle;Signal;HPM_P1;HPM_P2
2023/10/09 00:03:15;;;;;;;;;;;;;;;20.88;44.69;99688.22;4997781;28;19943;-72
2023/10/09 00:05:45;;;;;;;;;;;;;;;20.71;45.02;99684.06;4992073;28;19918;-72
2023/10/09 00:08:20;;;;;;;;;;;;;;;20.49;45.76;99683.13;5007118;28;19964;-72
2023/10/09 00:10:52;;;;;;;;;;;;;;;20.35;46.12;99675.38;4998677;28;19967;-72
2023/10/09 00:13:18;;;;;;;;;;;;;;;20.26;46.43;99669.22;4992071;28;19922;-72
2023/10/09 00:15:45;;;;;;;;;;;;;;;20.20;46.86;99665.94;4994674;28;19918;-72
2023/10/09 00:18:12;;;;;;;;;;;;;;;20.15;47.02;99672.81;5000393;28;20289;-72
2023/10/09 00:20:42;;;;;;;;;;;;;;;19.99;47.46;99678.78;5011407;28;20345;-72
2023/10/09 00:23:14;;;;;;;;;;;;;;;20.05;47.40;99679.22;5011308;28;19917;-72
2023/10/09 00:25:46;;;;;;;;;;;;;;;20.14;47.23;99685.38;5012841;28;19917;-72
2023/10/09 00:28:12;;;;;;;;;;;;;;;20.19;47.20;99676.47;5013978;28;20376;-72
2023/10/09 00:30:41;;;;;;;;;;;;;;;20.13;47.34;99677.25;5012951;28;19921;-72
2023/10/09 00:33:07;;;;;;;;;;;;;;;19.97;48.04;99677.53;5015241;28;20284;-72
2023/10/09 00:35:36;;;;;;;;;;;;;;;20.11;47.89;99671.97;5013434;28;19987;-73
2023/10/09 00:38:24;;;;;;;;;;;;;;;20.10;47.76;99673.19;5014779;28;19918;-72
2023/10/09 00:43:35;;;;;;;;;;;;;;;19.96;48.37;99671.06;5015326;28;19960;-72
2023/10/09 00:46:12;;;;;;;;;;;;;;;19.94;48.37;99679.16;5015023;28;19917;-72
2023/10/09 00:48:40;;;;;;;;;;;;;;;19.96;48.40;99679.56;5014382;28;19918;-72
2023/10/09 00:51:16;;;;;;;;;;;;;;;19.94;48.49;99682.00;5014203;28;19918;-72
2023/10/09 00:53:48;;;;;;;;;;;;;;;19.94;48.38;99682.00;4999972;28;20381;-72
2023/10/09 00:58:56;;;;;;;;;;;;;;;20.06;48.02;99690.19;4995122;28;20381;-72
2023/10/09 01:01:40;;;;;;;;;;;;;;;20.11;48.10;99697.53;4994230;28;20020;-72
2023/10/09 01:04:14;;;;;;;;;;;;;;;19.90;48.83;99703.81;5012539;28;19959;-72
2023/10/09 01:06:44;;;;;;;;;;;;;;;19.69;49.56;99707.28;5014653;28;19913;-72
2023/10/09 01:09:21;;;;;;;;;;;;;;;19.73;49.59;99711.81;5014007;28;19928;-72
2023/10/09 01:12:03;;;;;;;;;;;;;;;19.78;49.75;99717.09;4994965;28;20004;-73
2023/10/09 01:14:30;;;;;;;;;;;;;;;19.69;50.39;99722.31;4994988;28;19965;-72
2023/10/09 01:16:56;;;;;;;;;;;;;;;19.82;50.11;99722.81;5006098;28;20372;-73
2023/10/09 01:19:27;;;;;;;;;;;;;;;19.90;49.87;99709.50;5013674;28;19997;-72
2023/10/09 01:21:53;;;;;;;;;;;;;;;19.85;50.02;99715.53;5014372;28;19924;-72
2023/10/09 01:24:26;;;;;;;;;;;;;;;19.80;50.54;99721.59;5014249;28;19918;-72
2023/10/09 01:26:54;;;;;;;;;;;;;;;19.85;50.63;99730.56;4999291;28;19918;-72
2023/10/09 01:29:27;;;;;;;;;;;;;;;19.90;50.47;99724.50;5009607;28;19920;-72
2023/10/09 01:31:56;;;;;;;;;;;;;;;19.82;50.71;99722.81;5012552;28;19928;-72
2023/10/09 01:34:34;;;;;;;;;;;;;;;19.71;51.20;99724.75;5008879;28;19918;-72
2023/10/09 01:37:00;;;;;;;;;;;;;;;19.66;51.48;99740.09;4993358;28;20392;-72
2023/10/09 01:39:29;;;;;;;;;;;;;;;19.52;51.92;99739.97;4994388;28;19921;-72
2023/10/09 01:41:58;;;;;;;;;;;;;;;19.56;52.17;99740.84;5004872;28;19917;-72
2023/10/09 01:44:26;;;;;;;;;;;;;;;19.49;52.09;99733.06;5013314;28;19929;-72
2023/10/09 01:46:54;;;;;;;;;;;;;;;19.60;51.96;99747.34;5013796;28;19918;-73
2023/10/09 01:49:29;;;;;;;;;;;;;;;19.38;52.63;99749.16;5008652;28;19975;-72
2023/10/09 01:51:55;;;;;;;;;;;;;;;19.34;52.97;99746.28;4992970;28;19921;-72
2023/10/09 01:54:36;;;;;;;;;;;;;;;19.22;53.31;99755.84;4994159;28;19914;-72
2023/10/09 01:57:05;;;;;;;;;;;;;;;19.09;53.77;99760.97;5014167;28;19918;-72
2023/10/09 01:59:37;;;;;;;;;;;;;;;19.07;53.64;99769.06;5009129;28;19918;-72
2023/10/09 02:02:12;;;;;;;;;;;;;;;19.15;53.27;99761.47;5013658;28;19918;-72
2023/10/09 02:04:40;;;;;;;;;;;;;;;19.07;53.13;99763.38;5013023;28;20384;-72
2023/10/09 02:07:07;;;;;;;;;;;;;;;19.12;53.07;99765.88;5013506;28;19982;-72
2023/10/09 02:09:34;;;;;;;;;;;;;;;18.92;53.25;99780.16;5013431;28;20358;-72
2023/10/09 02:12:00;;;;;;;;;;;;;;;19.04;52.79;99789.66;5011586;28;20309;-73
2023/10/09 02:14:26;;;;;;;;;;;;;;;19.07;51.79;99783.22;4996633;28;19925;-72
2023/10/09 02:17:17;;;;;;;;;;;;;;;19.10;51.52;99784.47;4992445;28;20373;-72
2023/10/09 02:19:49;;;;;;;;;;;;;;;19.19;50.84;99790.66;5010100;28;19921;-72
2023/10/09 02:22:15;;;;;;;;;;;;;;;19.22;50.64;99793.53;5013268;28;19914;-72
2023/10/09 02:24:49;;;;;;;;;;;;;;;19.23;50.19;99800.00;5012741;28;20011;-72
2023/10/09 02:27:40;;;;;;;;;;;;;;;19.33;49.85;99796.50;5012917;28;19917;-72
2023/10/09 02:30:26;;;;;;;;;;;;;;;19.40;49.47;99812.78;5004333;28;19992;-72
2023/10/09 02:32:53;;;;;;;;;;;;;;;19.55;49.12;99821.44;4998357;28;20356;-72
2023/10/09 02:35:38;;;;;;;;;;;;;;;19.35;49.55;99828.09;5012667;28;19917;-73
2023/10/09 02:38:06;;;;;;;;;;;;;;;19.28;49.75;99832.88;5012617;28;19921;-72
2023/10/09 02:40:39;;;;;;;;;;;;;;;19.19;49.59;99833.19;5011465;28;19917;-72
2023/10/09 02:43:05;;;;;;;;;;;;;;;19.36;49.27;99834.59;5012742;28;19924;-72
2023/10/09 02:45:35;;;;;;;;;;;;;;;19.65;48.67;99834.94;5012670;28;20396;-73
2023/10/09 02:48:08;;;;;;;;;;;;;;;19.43;49.02;99842.38;5010062;28;19914;-72
2023/10/09 02:50:38;;;;;;;;;;;;;;;19.41;49.12;99839.94;5012637;28;19998;-72
2023/10/09 02:53:09;;;;;;;;;;;;;;;19.62;48.97;99852.75;5012799;28;19913;-72
2023/10/09 02:55:38;;;;;;;;;;;;;;;19.49;49.24;99857.88;5012380;28;19940;-72
2023/10/09 02:58:20;;;;;;;;;;;;;;;19.61;48.98;99860.44;5012644;28;19913;-72
2023/10/09 03:00:46;;;;;;;;;;;;;;;19.71;49.05;99867.44;5011208;28;19936;-73
2023/10/09 03:03:14;;;;;;;;;;;;;;;19.71;48.80;99875.94;5002337;28;19914;-72
2023/10/09 03:05:42;;;;;;;;;;;;;;;19.65;48.89;99877.50;5008782;28;20320;-72
2023/10/09 03:08:08;;;;;;;;;;;;;;;19.82;49.32;99883.78;5027472;28;19913;-72
2023/10/09 03:10:34;;;;;;;;;;;;;;;19.79;48.90;99891.03;5012280;28;20344;-72
2023/10/09 03:13:01;;;;;;;;;;;;;;;19.31;49.84;99929.34;5012555;28;19922;-72
2023/10/09 03:15:29;;;;;;;;;;;;;;;18.51;51.23;99924.44;5012200;28;20384;-72
2023/10/09 03:17:54;;;;;;;;;;;;;;;18.02;51.49;99938.09;5012316;28;20470;-72
2023/10/09 03:20:19;;;;;;;;;;;;;;;17.52;52.96;99938.72;5010534;28;19913;-72
2023/10/09 03:22:45;;;;;;;;;;;;;;;17.27;53.19;99943.81;5012002;28;19917;-72
2023/10/09 03:25:16;;;;;;;;;;;;;;;16.94;53.50;99951.53;5010616;28;20397;-72
2023/10/09 03:27:44;;;;;;;;;;;;;;;16.78;53.81;99947.91;5010856;28;20012;-72
2023/10/09 03:30:16;;;;;;;;;;;;;;;16.72;53.79;99950.19;5008904;28;19917;-72
2023/10/09 03:32:41;;;;;;;;;;;;;;;16.61;54.30;99960.38;5010202;28;20016;-72
2023/10/09 03:35:10;;;;;;;;;;;;;;;16.54;54.34;99967.47;5005884;28;19940;-72
2023/10/09 03:37:35;;;;;;;;;;;;;;;16.42;54.06;99965.56;4992857;28;20009;-76
2023/10/09 03:40:01;;;;;;;;;;;;;;;16.36;53.93;99975.47;4992266;28;20033;-76
2023/10/09 03:42:26;;;;;;;;;;;;;;;16.24;53.85;99965.09;4992372;28;19973;-76
2023/10/09 03:44:57;;;;;;;;;;;;;;;16.07;54.23;99966.25;4992358;28;19949;-76
2023/10/09 03:47:22;;;;;;;;;;;;;;;15.99;54.43;99968.06;5008274;28;20375;-76
2023/10/09 03:49:51;;;;;;;;;;;;;;;16.02;53.74;99976.97;5015744;28;19925;-76
2023/10/09 03:52:17;;;;;;;;;;;;;;;15.92;53.64;99981.09;5011434;28;20415;-76
2023/10/09 03:54:46;;;;;;;;;;;;;;;15.86;53.76;99983.31;5009952;28;19924;-76
2023/10/09 03:57:13;;;;;;;;;;;;;;;15.86;53.61;99989.81;5010370;28;19913;-76
2023/10/09 03:59:40;;;;;;;;;;;;;;;15.89;53.45;99993.91;5008747;28;20324;-74
2023/10/09 04:02:05;;;;;;;;;;;;;;;15.83;53.52;100010.28;5010259;28;19918;-76
2023/10/09 04:04:33;;;;;;;;;;;;;;;15.68;53.66;100002.53;4996116;28;19925;-76
2023/10/09 04:06:58;;;;;;;;;;;;;;;15.81;53.57;100009.81;4996243;28;19921;-77
2023/10/09 04:11:57;;;;;;;;;;;;;;;15.86;52.99;100012.38;5000864;28;19914;-73
2023/10/09 04:14:33;;;;;;;;;;;;;;;15.83;52.98;100013.09;5015560;28;19925;-75
2023/10/09 04:19:48;;;;;;;;;;;;;;;15.66;53.66;100030.28;5014847;28;20496;-73
2023/10/09 04:22:26;;;;;;;;;;;;;;;15.73;53.64;100030.50;5015376;28;19944;-74
2023/10/09 04:24:51;;;;;;;;;;;;;;;15.59;53.70;100030.88;5009040;28;19921;-75
2023/10/09 04:27:17;;;;;;;;;;;;;;;15.51;53.83;100035.47;5027519;28;20025;-72
2023/10/09 04:29:46;;;;;;;;;;;;;;;15.62;53.26;100037.81;5012551;28;19936;-73
2023/10/09 04:32:16;;;;;;;;;;;;;;;15.37;53.86;100035.84;5026674;28;19917;-74
2023/10/09 04:34:56;;;;;;;;;;;;;;;15.22;53.99;100040.22;5012624;28;19913;-74
2023/10/09 04:37:36;;;;;;;;;;;;;;;15.08;54.29;100048.19;5011377;28;19936;-74
2023/10/09 04:40:12;;;;;;;;;;;;;;;15.12;54.44;100040.69;5013768;28;20495;-73
2023/10/09 04:42:37;;;;;;;;;;;;;;;15.09;54.02;100039.38;5022422;28;19997;-72
2023/10/09 04:47:57;;;;;;;;;;;;;;;14.83;54.31;100050.97;5010845;28;19925;-74
2023/10/09 04:52:54;;;;;;;;;;;;;;;14.76;54.32;100062.00;5012225;28;19917;-75
2023/10/09 04:55:19;;;;;;;;;;;;;;;14.81;54.33;100071.06;5014999;28;19940;-75
2023/10/09 04:57:46;;;;;;;;;;;;;;;14.72;53.66;100074.00;5032706;28;19924;-74
2023/10/09 05:02:59;;;;;;;;;;;;;;;14.91;53.14;100075.41;5008444;28;20373;-75
2023/10/09 05:08:21;;;;;;;;;;;;;;;14.95;53.41;100087.63;5012783;28;19918;-75
2023/10/09 05:13:42;;;;;;;;;;;;;;;14.94;53.06;100097.25;5003520;28;19922;-75
2023/10/09 05:16:13;;;;;;;;;;;;;;;14.95;52.63;100096.06;5009364;28;19914;-75
2023/10/09 05:18:38;;;;;;;;;;;;;;;14.97;52.73;100107.81;5009516;28;19921;-75
2023/10/09 05:23:48;;;;;;;;;;;;;;;14.98;52.67;100108.63;5014358;28;20376;-75
2023/10/09 05:28:58;;;;;;;;;;;;;;;14.62;53.38;100112.97;5014529;28;19921;-75
2023/10/09 05:34:07;;;;;;;;;;;;;;;14.66;52.12;100111.94;5004510;28;19966;-74
2023/10/09 05:36:35;;;;;;;;;;;;;;;14.53;52.84;100122.31;5004360;28;20447;-72
2023/10/09 05:39:29;;;;;;;;;;;;;;;14.52;52.60;100131.13;5004055;28;19921;-70
2023/10/09 05:41:59;;;;;;;;;;;;;;;14.59;52.47;100137.00;5005785;28;20398;-73
2023/10/09 05:50:33;;;;;;;;;;;;;;;14.42;52.09;100149.25;5010481;28;19929;-75
2023/10/09 06:08:27;;;;;;;;;;;;;;;14.70;49.31;100219.06;4998662;28;19921;-72
2023/10/09 06:13:45;;;;;;;;;;;;;;;14.84;47.30;100227.22;5020149;28;19931;-73
2023/10/09 06:16:19;;;;;;;;;;;;;;;14.83;46.96;100234.88;5025981;28;19929;-72
2023/10/09 06:18:53;;;;;;;;;;;;;;;14.81;46.40;100233.56;5008429;28;20008;-72
2023/10/09 06:22:56;;;;;;;;;;;;;;;14.62;45.65;100246.13;5004956;28;19964;-72
2023/10/09 06:24:17;;;;;;;;;;;;;;;14.49;45.90;100250.03;4998497;28;20428;-72
2023/10/09 06:27:11;;;;;;;;;;;;;;;14.63;44.97;100255.38;5006303;28;20467;-73
2023/10/09 06:32:23;;;;;;;;;;;;;;;14.76;45.11;100264.75;5008057;28;19921;-75
2023/10/09 06:34:51;;;;;;;;;;;;;;;14.79;45.14;100280.94;5007521;28;19921;-74
2023/10/09 06:45:07;;;;;;;;;;;;;;;15.27;44.68;100293.59;5009629;28;20025;-75
2023/10/09 06:47:41;;;;;;;;;;;;;;;15.52;44.47;100299.31;4999439;28;19929;-73
2023/10/09 06:56:01;;;;;;;;;;;;;;;16.19;43.20;100318.09;4999401;28;19932;-73
2023/10/09 06:58:26;;;;;;;;;;;;;;;16.49;42.27;100322.69;5020974;28;20079;-75
2023/10/09 07:03:29;;;;;;;;;;;;;;;16.39;41.17;100321.16;5008818;28;19925;-72
2023/10/09 07:09:15;;;;;;;;;;;;;;;16.46;41.26;100337.50;5004607;28;20360;-73
2023/10/09 07:17:00;;;;;;;;;;;;;;;16.60;40.91;100337.16;5009689;28;19928;-72
2023/10/09 07:19:57;;;;;;;;;;;;;;;16.45;40.93;100342.31;5009557;28;19967;-72
2023/10/09 07:24:49;;;;;;;;;;;;;;;16.59;41.46;100343.97;5008070;28;20068;-74
2023/10/09 07:27:43;;;;;;;;;;;;;;;16.86;40.56;100342.38;5007006;28;19975;-74
2023/10/09 07:32:54;;;;;;;;;;;;;;;16.72;40.36;100339.13;5006774;28;20308;-73
2023/10/09 07:35:46;;;;;;;;;;;;;;;16.93;40.27;100334.13;5010691;28;19913;-72
2023/10/09 07:38:05;;;;;;;;;;;;;;;16.87;40.05;100349.69;5009694;28;20400;-75
2023/10/09 07:40:51;;;;;;;;;;;;;;;17.01;39.81;100346.50;5008856;28;19964;-69
2023/10/09 07:43:17;;;;;;;;;;;;;;;17.19;39.92;100347.03;5008558;28;20380;-71
2023/10/09 07:48:16;;;;;;;;;;;;;;;17.57;38.65;100349.69;5008436;28;19918;-67
2023/10/09 07:50:47;;;;;;;;;;;;;;;17.77;39.35;100343.00;5007337;28;19939;-68
2023/10/09 07:53:17;;;;;;;;;;;;;;;17.70;39.17;100336.31;5009011;28;19917;-68
2023/10/09 07:55:53;;;;;;;;;;;;;;;17.54;38.91;100334.25;5005123;28;19922;-68
2023/10/09 07:58:24;;;;;;;;;;;;;;;17.53;40.18;100333.47;5009561;28;19914;-68
2023/10/09 08:01:06;;;;;;;;;;;;;;;17.86;39.71;100333.47;5003547;28;20319;-68
2023/10/09 08:03:33;;;;;;;;;;;;;;;17.94;39.73;100335.31;5008869;28;19924;-68
2023/10/09 08:06:37;;;;;;;;;;;;;;;17.87;40.52;100326.66;5009749;28;20004;-68
2023/10/09 08:14:59;;;;;;;;;;;;;;;18.73;39.62;100336.44;5009068;28;19933;-73
2023/10/09 08:17:11;;;;;;;;;;;;;;;18.84;39.20;100322.53;4994220;28;19968;-75
2023/10/09 08:19:51;;;;;;;;;;;;;;;18.93;39.20;100311.78;5006275;28;19928;-74
2023/10/09 08:22:37;;;;;;;;;;;;;;;18.61;39.19;100314.75;5005301;28;20094;-72
2023/10/09 08:25:02;;;;;;;;;;;;;;;18.79;39.55;100319.97;5009717;28;20375;-73
2023/10/09 08:27:47;;;;;;;;;;;;;;;18.33;38.46;100318.53;5005995;28;19943;-74
2023/10/09 08:30:28;;;;;;;;;;;;;;;18.23;38.55;100317.09;5008754;28;19953;-74
2023/10/09 08:33:03;;;;;;;;;;;;;;;18.55;38.03;100316.22;5010271;28;19921;-73
2023/10/09 08:35:29;;;;;;;;;;;;;;;19.01;38.98;100317.66;5009992;28;19918;-73
2023/10/09 08:38:19;;;;;;;;;;;;;;;19.39;38.06;100316.00;5008983;28;20459;-73
2023/10/09 08:40:46;;;;;;;;;;;;;;;19.55;37.26;100309.38;5011209;28;20005;-74
2023/10/09 08:43:16;;;;;;;;;;;;;;;19.67;37.35;100305.56;5025040;28;20052;-77
2023/10/09 08:46:01;;;;;;;;;;;;;;;19.81;37.63;100300.16;5025704;28;20372;-74
2023/10/09 08:48:27;;;;;;;;;;;;;;;19.19;36.97;100301.00;5011092;28;19972;-79
2023/10/09 08:50:56;;;;;;;;;;;;;;;19.47;38.23;100297.91;5011552;28;20416;-74
2023/10/09 08:53:23;;;;;;;;;;;;;;;19.71;36.96;100295.94;5008941;28;19918;-74
2023/10/09 08:55:49;;;;;;;;;;;;;;;19.27;36.66;100301.97;5012012;28;19913;-75
2023/10/09 08:58:24;;;;;;;;;;;;;;;19.70;36.49;100290.63;5011940;28;19917;-75
2023/10/09 09:00:50;;;;;;;;;;;;;;;20.22;36.25;100281.81;5012857;28;19974;-74
2023/10/09 09:03:16;;;;;;;;;;;;;;;20.47;36.39;100285.00;5011163;28;19929;-73
2023/10/09 09:05:46;;;;;;;;;;;;;;;20.62;35.65;100283.19;5012293;28;19926;-76
2023/10/09 09:08:23;;;;;;;;;;;;;;;20.39;36.58;100280.41;5007367;28;19925;-75
2023/10/09 09:10:50;;;;;;;;;;;;;;;20.24;37.16;100283.03;5012086;28;19917;-75
2023/10/09 09:13:18;;;;;;;;;;;;;;;19.93;37.01;100284.97;5012629;28;19976;-76
2023/10/09 09:15:46;;;;;;;;;;;;;;;19.41;36.91;100273.06;5011602;28;19948;-80
2023/10/09 09:18:17;;;;;;;;;;;;;;;20.04;37.61;100276.63;5011198;28;19922;-76
2023/10/09 09:20:46;;;;;;;;;;;;;;;20.41;37.28;100278.84;5008157;28;20430;-71
2023/10/09 09:23:14;;;;;;;;;;;;;;;20.82;35.84;100275.38;5004552;28;20379;-73
2023/10/09 09:25:58;;;;;;;;;;;;;;;20.86;35.01;100264.84;5010149;28;19932;-78
2023/10/09 09:28:26;;;;;;;;;;;;;;;21.02;34.79;100258.16;5010468;28;19926;-76
2023/10/09 09:30:53;;;;;;;;;;;;;;;20.57;35.01;100255.09;5009548;28;20035;-73
2023/10/09 09:33:26;;;;;;;;;;;;;;;20.23;35.66;100253.00;5013065;28;19918;-73
2023/10/09 09:36:07;;;;;;;;;;;;;;;19.68;36.48;100248.44;5011700;28;19917;-75
2023/10/09 09:38:47;;;;;;;;;;;;;;;19.45;36.72;100245.59;5011122;28;20412;-74
2023/10/09 09:41:23;;;;;;;;;;;;;;;19.71;36.67;100241.19;5013038;28;20020;-73
2023/10/09 09:43:50;;;;;;;;;;;;;;;20.30;35.36;100235.25;5011426;28;19929;-75
2023/10/09 09:46:15;;;;;;;;;;;;;;;19.49;36.95;100235.94;5012708;28;19995;-74
2023/10/09 09:48:45;;;;;;;;;;;;;;;19.42;37.25;100241.47;5010893;28;20034;-76
2023/10/09 09:51:17;;;;;;;;;;;;;;;19.75;37.10;100242.06;5010739;28;19922;-77
2023/10/09 09:53:46;;;;;;;;;;;;;;;20.51;35.56;100234.72;5011635;28;19918;-74
2023/10/09 09:56:17;;;;;;;;;;;;;;;20.75;36.10;100239.13;5012427;28;19956;-77
2023/10/09 09:58:43;;;;;;;;;;;;;;;21.11;35.99;100218.03;5025239;28;19973;-74
2023/10/09 10:01:24;;;;;;;;;;;;;;;21.32;35.34;100220.28;5011518;28;19925;-79
2023/10/09 10:03:52;;;;;;;;;;;;;;;21.68;35.54;100209.25;5007902;28;20363;-77
2023/10/09 10:06:21;;;;;;;;;;;;;;;21.70;35.11;100198.31;5011517;28;19922;-72
2023/10/09 10:08:50;;;;;;;;;;;;;;;22.05;34.42;100193.28;5013086;28;19918;-74
2023/10/09 10:11:40;;;;;;;;;;;;;;;21.99;34.11;100192.84;5009662;28;19917;-76
2023/10/09 10:14:10;;;;;;;;;;;;;;;22.10;33.16;100184.34;4998841;28;20351;-76
2023/10/09 10:17:00;;;;;;;;;;;;;;;21.55;35.34;100166.03;5014378;28;19917;-74
2023/10/09 10:19:47;;;;;;;;;;;;;;;21.88;34.29;100158.56;5006376;28;19925;-71
2023/10/09 10:22:27;;;;;;;;;;;;;;;22.12;33.59;100164.81;5022049;28;19924;-71
2023/10/09 10:24:53;;;;;;;;;;;;;;;22.04;33.46;100153.81;5006416;28;20301;-71
2023/10/09 10:27:26;;;;;;;;;;;;;;;22.11;33.25;100154.66;5023372;28;19925;-71
2023/10/09 10:30:06;;;;;;;;;;;;;;;21.63;33.30;100146.16;5013342;28;19924;-71
2023/10/09 10:32:51;;;;;;;;;;;;;;;21.89;34.60;100142.31;5017130;28;19917;-71
2023/10/09 10:35:16;;;;;;;;;;;;;;;21.88;33.09;100146.38;5008866;28;20308;-71
2023/10/09 10:37:51;;;;;;;;;;;;;;;22.04;32.69;100145.25;5014864;28;19921;-71
2023/10/09 10:40:38;;;;;;;;;;;;;;;22.26;32.50;100135.63;5008684;28;19933;-70
2023/10/09 10:43:13;;;;;;;;;;;;;;;22.52;33.50;100130.88;5018008;28;19922;-71
2023/10/09 10:45:45;;;;;;;;;;;;;;;22.71;33.35;100128.91;5022513;28;19921;-74
2023/10/09 10:48:22;;;;;;;;;;;;;;;22.89;33.04;100125.28;5005827;28;20031;-71
2023/10/09 10:50:57;;;;;;;;;;;;;;;22.85;32.35;100126.09;5022671;28;19918;-71
2023/10/09 10:53:27;;;;;;;;;;;;;;;23.03;31.68;100116.75;5009133;28;19925;-71
2023/10/09 10:56:17;;;;;;;;;;;;;;;23.09;31.22;100108.59;5007002;28;19917;-71
2023/10/09 11:18:07;;;;;;;;;;;;;;;23.36;31.66;100071.94;5002768;28;20372;-72
2023/10/09 11:20:36;;;;;;;;;;;;;;;22.66;31.00;100063.72;5011085;28;19924;-72
2023/10/09 11:25:49;;;;;;;;;;;;;;;22.34;31.87;100058.72;4992522;28;20384;-72
2023/10/09 11:28:31;;;;;;;;;;;;;;;22.99;30.99;100054.00;4996131;28;19921;-72
2023/10/09 11:31:11;;;;;;;;;;;;;;;23.32;31.44;100036.91;5010628;28;19914;-72
2023/10/09 11:33:43;;;;;;;;;;;;;;;23.12;31.38;100045.84;5025490;28;20388;-72
2023/10/09 11:36:08;;;;;;;;;;;;;;;23.03;31.48;100036.06;5011800;28;19913;-72
2023/10/09 11:38:37;;;;;;;;;;;;;;;22.90;32.00;100025.06;5009363;28;20315;-72
2023/10/09 11:41:19;;;;;;;;;;;;;;;23.24;31.28;100021.81;5011174;28;19959;-72
2023/10/09 11:43:54;;;;;;;;;;;;;;;23.64;30.16;100003.81;5009683;28;19923;-72
2023/10/09 11:52:03;;;;;;;;;;;;;;;23.71;30.32;100000.91;5011977;28;19913;-73
2023/10/09 11:54:30;;;;;;;;;;;;;;;23.56;29.91;100011.59;5011621;28;20011;-72
2023/10/09 11:56:55;;;;;;;;;;;;;;;23.41;30.51;100000.22;5025764;28;19917;-72
2023/10/09 11:59:23;;;;;;;;;;;;;;;23.22;29.19;99995.69;5009668;28;19967;-73
2023/10/09 12:01:52;;;;;;;;;;;;;;;23.78;29.01;99994.41;5010433;28;19968;-72
2023/10/09 12:04:18;;;;;;;;;;;;;;;23.76;29.40;99997.66;5009375;28;19922;-72
2023/10/09 12:06:44;;;;;;;;;;;;;;;24.11;29.50;99998.75;5011358;28;19925;-72
2023/10/09 12:09:16;;;;;;;;;;;;;;;23.82;29.86;99993.13;5011770;28;19917;-73
2023/10/09 12:11:41;;;;;;;;;;;;;;;23.69;29.37;99984.22;5010224;28;19918;-72
2023/10/09 12:14:07;;;;;;;;;;;;;;;23.86;29.52;99969.47;5010853;28;19980;-72
2023/10/09 12:16:32;;;;;;;;;;;;;;;23.50;29.72;99981.81;5012242;28;19918;-72
2023/10/09 12:18:59;;;;;;;;;;;;;;;23.09;29.57;99966.78;5010925;28;19924;-72
2023/10/09 12:21:27;;;;;;;;;;;;;;;23.28;29.18;99957.00;5011318;28;19979;-72
2023/10/09 12:23:57;;;;;;;;;;;;;;;23.86;28.58;99958.84;5015393;28;19913;-72
2023/10/09 12:26:22;;;;;;;;;;;;;;;24.14;28.67;99942.03;5013480;28;19928;-72
2023/10/09 12:28:49;;;;;;;;;;;;;;;24.43;28.08;99934.06;5015267;28;19918;-72
2023/10/09 12:31:15;;;;;;;;;;;;;;;24.44;28.91;99937.75;5014697;28;20004;-73
2023/10/09 12:33:41;;;;;;;;;;;;;;;24.07;28.57;99937.16;5015264;28;19972;-73
2023/10/09 12:36:06;;;;;;;;;;;;;;;23.97;29.30;99933.91;5015213;28;19913;-72
2023/10/09 12:38:31;;;;;;;;;;;;;;;24.06;29.27;99926.97;5013932;28;20398;-72
2023/10/09 12:43:47;;;;;;;;;;;;;;;23.65;29.04;99922.66;5014552;28;19920;-72
2023/10/09 12:46:16;;;;;;;;;;;;;;;23.70;29.10;99916.50;5015033;28;19921;-72
2023/10/09 12:48:47;;;;;;;;;;;;;;;23.97;28.97;99913.91;4999363;28;19976;-73
2023/10/09 12:51:16;;;;;;;;;;;;;;;24.00;28.56;99914.31;4995501;28;19924;-72
2023/10/09 12:53:42;;;;;;;;;;;;;;;24.09;28.32;99909.81;5005590;28;19913;-72
2023/10/09 12:56:07;;;;;;;;;;;;;;;24.24;28.68;99907.66;5014943;28;19917;-72
2023/10/09 12:58:37;;;;;;;;;;;;;;;24.16;28.26;99900.38;5014621;28;19918;-72
2023/10/09 13:01:09;;;;;;;;;;;;;;;24.17;27.78;99896.28;5010691;28;20028;-72
2023/10/09 13:03:38;;;;;;;;;;;;;;;24.24;28.38;99893.34;4995151;28;19914;-72
2023/10/09 13:06:07;;;;;;;;;;;;;;;24.25;28.13;99886.44;5011807;28;19928;-73
2023/10/09 13:08:35;;;;;;;;;;;;;;;24.45;28.32;99887.94;5014756;28;19924;-73
2023/10/09 13:11:16;;;;;;;;;;;;;;;24.44;28.14;99881.38;5014729;28;19928;-72
2023/10/09 13:13:51;;;;;;;;;;;;;;;24.11;28.24;99869.38;5013105;28;19921;-72
2023/10/09 13:16:23;;;;;;;;;;;;;;;24.23;28.29;99866.03;5014542;28;19918;-72
2023/10/09 13:18:51;;;;;;;;;;;;;;;24.12;28.27;99868.13;5012430;28;20426;-73
2023/10/09 13:21:21;;;;;;;;;;;;;;;23.90;27.77;99870.31;5028350;28;20004;-72
2023/10/09 13:23:46;;;;;;;;;;;;;;;23.60;28.72;99858.22;5012567;28;19917;-74
2023/10/09 13:26:18;;;;;;;;;;;;;;;23.84;28.18;99859.34;5013154;28;19925;-74
2023/10/09 13:28:48;;;;;;;;;;;;;;;23.55;28.28;99865.19;5014276;28;20000;-74
2023/10/09 13:31:14;;;;;;;;;;;;;;;23.66;28.13;99861.47;5014310;28;19913;-74
2023/10/09 13:33:43;;;;;;;;;;;;;;;23.93;27.99;99853.16;5012935;28;19913;-74
2023/10/09 13:36:27;;;;;;;;;;;;;;;23.58;28.21;99846.41;5015031;28;20375;-74
2023/10/09 13:38:53;;;;;;;;;;;;;;;23.79;27.86;99847.53;5014129;28;20380;-73
2023/10/09 13:41:19;;;;;;;;;;;;;;;24.01;28.08;99844.50;5014149;28;19952;-73
2023/10/09 13:43:44;;;;;;;;;;;;;;;24.27;27.76;99842.34;5013619;28;19914;-73
2023/10/09 13:46:09;;;;;;;;;;;;;;;24.27;27.03;99843.13;5013958;28;20304;-74
2023/10/09 13:48:40;;;;;;;;;;;;;;;24.44;26.95;99827.06;5008339;28;19917;-73
2023/10/09 13:51:07;;;;;;;;;;;;;;;24.04;27.30;99826.59;5010338;28;20268;-74
2023/10/09 13:53:33;;;;;;;;;;;;;;;24.08;26.88;99824.50;5000351;28;19928;-77
2023/10/09 13:55:58;;;;;;;;;;;;;;;24.15;27.97;99823.63;5025014;28;19921;-76
2023/10/09 13:58:23;;;;;;;;;;;;;;;23.87;28.07;99811.97;5013246;28;19925;-73
2023/10/09 14:00:53;;;;;;;;;;;;;;;23.85;27.77;99803.00;5010380;28;19924;-74
2023/10/09 14:03:23;;;;;;;;;;;;;;;23.95;27.99;99795.59;5006564;28;19928;-75
2023/10/09 14:05:54;;;;;;;;;;;;;;;24.03;27.67;99791.47;5009983;28;19930;-75
2023/10/09 14:08:23;;;;;;;;;;;;;;;24.09;27.46;99797.56;5007161;28;20324;-76
2023/10/09 14:10:51;;;;;;;;;;;;;;;24.03;27.43;99791.47;5011737;28;19975;-76
2023/10/09 14:13:16;;;;;;;;;;;;;;;24.07;27.11;99789.44;5008036;28;20361;-75
2023/10/09 14:15:43;;;;;;;;;;;;;;;24.23;26.98;99788.88;5004724;28;19921;-73
2023/10/09 14:18:11;;;;;;;;;;;;;;;24.33;27.09;99787.16;5005273;28;19925;-73
2023/10/09 14:20:41;;;;;;;;;;;;;;;24.33;26.95;99783.47;5019913;28;19925;-73
2023/10/09 14:23:06;;;;;;;;;;;;;;;24.24;26.98;99789.69;5018046;28;20307;-75
2023/10/09 14:25:43;;;;;;;;;;;;;;;24.36;26.45;99776.91;5021580;28;20000;-73
2023/10/09 14:28:09;;;;;;;;;;;;;;;23.97;27.29;99779.66;5007789;28;20012;-72
2023/10/09 14:30:41;;;;;;;;;;;;;;;23.66;27.65;99782.34;5012152;28;20462;-73
2023/10/09 14:33:22;;;;;;;;;;;;;;;23.52;27.58;99771.00;5009686;28;19917;-72
2023/10/09 14:35:48;;;;;;;;;;;;;;;23.47;27.89;99780.84;5009295;28;20360;-72
2023/10/09 14:38:15;;;;;;;;;;;;;;;23.58;28.13;99777.91;5008422;28;19921;-72
2023/10/09 14:40:44;;;;;;;;;;;;;;;23.86;27.86;99776.06;5008552;28;19917;-72
2023/10/09 14:43:18;;;;;;;;;;;;;;;23.90;28.05;99774.03;5003770;28;19932;-73
2023/10/09 14:45:48;;;;;;;;;;;;;;;23.73;27.80;99766.38;5006957;28;19935;-74
2023/10/09 14:48:14;;;;;;;;;;;;;;;23.40;28.48;99770.25;5008230;28;20444;-76
2023/10/09 14:50:46;;;;;;;;;;;;;;;23.17;28.59;99767.91;5012652;28;19917;-75
2023/10/09 14:53:12;;;;;;;;;;;;;;;23.10;28.96;99768.75;5009273;28;19923;-73
2023/10/09 14:55:38;;;;;;;;;;;;;;;22.98;28.99;99772.06;5009367;28;20382;-74
2023/10/09 14:58:03;;;;;;;;;;;;;;;22.87;29.59;99772.09;5005356;28;20004;-74
2023/10/09 15:00:33;;;;;;;;;;;;;;;22.85;29.46;99771.69;5008641;28;19967;-73
2023/10/09 15:02:59;;;;;;;;;;;;;;;22.90;29.49;99767.59;5007131;28;19954;-75
2023/10/09 15:05:24;;;;;;;;;;;;;;;22.84;29.77;99772.91;5008839;28;19925;-76
2023/10/09 15:07:50;;;;;;;;;;;;;;;22.81;29.58;99774.56;5006238;28;20309;-75
2023/10/09 15:10:15;;;;;;;;;;;;;;;23.11;29.11;99773.22;5010511;28;19975;-71
2023/10/09 15:12:42;;;;;;;;;;;;;;;23.03;29.23;99767.97;5010669;28;19922;-74